sensor_id;sensor_type;location;lat;lon;timestamp;pressure;altitude;pressure_sealevel;temperature;humidity
77454;BME280;66538;53.150;18.160;2023-03-21T00:02:02;101235.79;;;8.33;82.02
77454;BME280;66538;53.150;18.160;2023-03-21T00:04:29;101239.70;;;8.34;81.89
77454;BME280;66538;53.150;18.160;2023-03-21T00:06:56;101238.74;;;8.33;81.73
77454;BME280;66538;53.150;18.160;2023-03-21T00:09:23;101240.30;;;8.32;81.90
77454;BME280;66538;53.150;18.160;2023-03-21T00:11:49;101236.66;;;8.31;81.82
77454;BME280;66538;53.150;18.160;2023-03-21T00:14:16;101238.16;;;8.31;81.75
77454;BME280;66538;53.150;18.160;2023-03-21T00:16:45;101233.93;;;8.30;81.88
77454;BME280;66538;53.150;18.160;2023-03-21T00:19:16;101231.27;;;8.29;81.75
77454;BME280;66538;53.150;18.160;2023-03-21T00:21:44;101229.63;;;8.29;81.59
77454;BME280;66538;53.150;18.160;2023-03-21T00:24:12;101227.40;;;8.28;81.59
77454;BME280;66538;53.150;18.160;2023-03-21T00:26:38;101228.81;;;8.29;81.85
77454;BME280;66538;53.150;18.160;2023-03-21T00:29:05;101226.80;;;8.27;81.67
77454;BME280;66538;53.150;18.160;2023-03-21T00:31:32;101226.19;;;8.27;81.96
77454;BME280;66538;53.150;18.160;2023-03-21T00:33:59;101227.98;;;8.25;82.01
77454;BME280;66538;53.150;18.160;2023-03-21T00:36:27;101224.69;;;8.22;82.04
77454;BME280;66538;53.150;18.160;2023-03-21T00:38:54;101227.11;;;8.22;81.95
77454;BME280;66538;53.150;18.160;2023-03-21T00:41:21;101226.91;;;8.20;82.04
77454;BME280;66538;53.150;18.160;2023-03-21T00:43:47;101226.59;;;8.18;82.07
77454;BME280;66538;53.150;18.160;2023-03-21T00:46:14;101225.34;;;8.19;82.16
77454;BME280;66538;53.150;18.160;2023-03-21T00:48:41;101222.86;;;8.16;82.56
77454;BME280;66538;53.150;18.160;2023-03-21T00:51:16;101219.55;;;8.13;82.79
77454;BME280;66538;53.150;18.160;2023-03-21T00:53:46;101221.35;;;8.11;82.78
77454;BME280;66538;53.150;18.160;2023-03-21T00:56:13;101225.04;;;8.09;82.71
77454;BME280;66538;53.150;18.160;2023-03-21T00:58:40;101226.50;;;8.09;82.71
77454;BME280;66538;53.150;18.160;2023-03-21T01:01:06;101222.63;;;8.07;82.87
77454;BME280;66538;53.150;18.160;2023-03-21T01:03:36;101224.83;;;8.06;82.84
77454;BME280;66538;53.150;18.160;2023-03-21T01:06:11;101224.30;;;8.05;83.00
77454;BME280;66538;53.150;18.160;2023-03-21T01:08:41;101219.61;;;8.03;83.26
77454;BME280;66538;53.150;18.160;2023-03-21T01:11:15;101219.19;;;8.00;83.14
77454;BME280;66538;53.150;18.160;2023-03-21T01:13:45;101217.11;;;7.99;82.97
77454;BME280;66538;53.150;18.160;2023-03-21T01:16:12;101214.98;;;7.99;82.93
77454;BME280;66538;53.150;18.160;2023-03-21T01:18:40;101216.81;;;7.98;83.23
77454;BME280;66538;53.150;18.160;2023-03-21T01:21:12;101218.40;;;7.99;83.21
77454;BME280;66538;53.150;18.160;2023-03-21T01:23:41;101217.91;;;7.98;83.18
77454;BME280;66538;53.150;18.160;2023-03-21T01:26:09;101217.37;;;7.98;83.17
77454;BME280;66538;53.150;18.160;2023-03-21T01:28:38;101213.25;;;7.98;82.93
77454;BME280;66538;53.150;18.160;2023-03-21T01:31:06;101213.91;;;7.99;83.33
77454;BME280;66538;53.150;18.160;2023-03-21T01:33:33;101212.79;;;7.97;82.98
77454;BME280;66538;53.150;18.160;2023-03-21T01:36:01;101214.24;;;7.97;83.31
77454;BME280;66538;53.150;18.160;2023-03-21T01:38:29;101211.40;;;7.95;83.40
77454;BME280;66538;53.150;18.160;2023-03-21T01:40:59;101212.55;;;7.94;83.63
77454;BME280;66538;53.150;18.160;2023-03-21T01:43:35;101212.00;;;7.93;83.71
77454;BME280;66538;53.150;18.160;2023-03-21T01:46:21;101207.11;;;7.92;83.60
77454;BME280;66538;53.150;18.160;2023-03-21T01:49:04;101211.67;;;7.90;83.41
77454;BME280;66538;53.150;18.160;2023-03-21T01:51:36;101209.48;;;7.89;83.68
77454;BME280;66538;53.150;18.160;2023-03-21T01:54:07;101210.52;;;7.89;83.77
77454;BME280;66538;53.150;18.160;2023-03-21T01:56:37;101211.73;;;7.88;83.76
77454;BME280;66538;53.150;18.160;2023-03-21T01:59:11;101210.97;;;7.88;83.61
77454;BME280;66538;53.150;18.160;2023-03-21T02:02:03;101214.35;;;7.86;83.64
77454;BME280;66538;53.150;18.160;2023-03-21T02:04:36;101213.34;;;7.84;83.74
77454;BME280;66538;53.150;18.160;2023-03-21T02:07:28;101216.66;;;7.84;84.19
77454;BME280;66538;53.150;18.160;2023-03-21T02:10:03;101214.74;;;7.82;84.27
77454;BME280;66538;53.150;18.160;2023-03-21T02:12:33;101220.16;;;7.82;84.23
77454;BME280;66538;53.150;18.160;2023-03-21T02:15:00;101219.95;;;7.80;84.16
77454;BME280;66538;53.150;18.160;2023-03-21T02:18:16;101216.55;;;7.80;84.41
77454;BME280;66538;53.150;18.160;2023-03-21T02:27:15;101220.75;;;7.77;84.80
77454;BME280;66538;53.150;18.160;2023-03-21T02:35:15;101215.96;;;7.76;84.68
77454;BME280;66538;53.150;18.160;2023-03-21T02:37:56;101218.38;;;7.75;84.70
77454;BME280;66538;53.150;18.160;2023-03-21T02:40:40;101216.52;;;7.74;84.68
77454;BME280;66538;53.150;18.160;2023-03-21T02:46:42;101214.52;;;7.74;84.71
77454;BME280;66538;53.150;18.160;2023-03-21T02:51:49;101209.13;;;7.74;84.70
77454;BME280;66538;53.150;18.160;2023-03-21T02:54:19;101211.52;;;7.75;84.70
77454;BME280;66538;53.150;18.160;2023-03-21T02:56:49;101206.27;;;7.74;84.78
77454;BME280;66538;53.150;18.160;2023-03-21T02:59:20;101206.56;;;7.73;84.62
77454;BME280;66538;53.150;18.160;2023-03-21T03:01:50;101206.02;;;7.73;84.59
77454;BME280;66538;53.150;18.160;2023-03-21T03:04:22;101209.07;;;7.74;84.39
77454;BME280;66538;53.150;18.160;2023-03-21T03:07:02;101211.33;;;7.72;84.78
77454;BME280;66538;53.150;18.160;2023-03-21T03:15:28;101212.13;;;7.68;84.69
77454;BME280;66538;53.150;18.160;2023-03-21T03:20:52;101214.48;;;7.67;84.88
77454;BME280;66538;53.150;18.160;2023-03-21T03:23:44;101216.52;;;7.66;84.92
77454;BME280;66538;53.150;18.160;2023-03-21T03:29:16;101218.27;;;7.64;84.92
77454;BME280;66538;53.150;18.160;2023-03-21T03:31:47;101215.56;;;7.62;84.82
77454;BME280;66538;53.150;18.160;2023-03-21T03:34:22;101214.90;;;7.62;84.60
77454;BME280;66538;53.150;18.160;2023-03-21T03:36:55;101217.09;;;7.61;84.96
77454;BME280;66538;53.150;18.160;2023-03-21T03:39:31;101217.75;;;7.61;84.90
77454;BME280;66538;53.150;18.160;2023-03-21T03:42:04;101214.16;;;7.60;84.60
77454;BME280;66538;53.150;18.160;2023-03-21T03:44:36;101214.54;;;7.60;84.59
77454;BME280;66538;53.150;18.160;2023-03-21T03:47:08;101214.24;;;7.59;84.86
77454;BME280;66538;53.150;18.160;2023-03-21T03:49:48;101214.55;;;7.58;84.71
77454;BME280;66538;53.150;18.160;2023-03-21T03:52:20;101216.14;;;7.57;84.46
77454;BME280;66538;53.150;18.160;2023-03-21T03:54:55;101214.86;;;7.55;84.45
77454;BME280;66538;53.150;18.160;2023-03-21T03:57:24;101216.86;;;7.55;84.44
77454;BME280;66538;53.150;18.160;2023-03-21T03:59:52;101218.34;;;7.54;84.73
77454;BME280;66538;53.150;18.160;2023-03-21T04:02:25;101217.11;;;7.52;84.65
77454;BME280;66538;53.150;18.160;2023-03-21T04:04:52;101219.56;;;7.53;84.57
77454;BME280;66538;53.150;18.160;2023-03-21T04:07:20;101218.23;;;7.51;84.55
77454;BME280;66538;53.150;18.160;2023-03-21T04:09:48;101219.08;;;7.50;84.62
77454;BME280;66538;53.150;18.160;2023-03-21T04:12:17;101217.03;;;7.48;84.84
77454;BME280;66538;53.150;18.160;2023-03-21T04:15:11;101216.54;;;7.48;84.66
77454;BME280;66538;53.150;18.160;2023-03-21T04:17:40;101214.98;;;7.46;84.45
77454;BME280;66538;53.150;18.160;2023-03-21T04:20:09;101215.30;;;7.46;84.58
77454;BME280;66538;53.150;18.160;2023-03-21T04:22:36;101218.05;;;7.45;84.52
77454;BME280;66538;53.150;18.160;2023-03-21T04:25:04;101222.43;;;7.44;84.81
77454;BME280;66538;53.150;18.160;2023-03-21T04:27:31;101227.88;;;7.43;84.88
77454;BME280;66538;53.150;18.160;2023-03-21T04:30:17;101227.81;;;7.43;84.68
77454;BME280;66538;53.150;18.160;2023-03-21T04:32:55;101231.64;;;7.42;84.84
77454;BME280;66538;53.150;18.160;2023-03-21T04:35:27;101234.81;;;7.42;84.60
77454;BME280;66538;53.150;18.160;2023-03-21T04:37:55;101235.48;;;7.41;84.86
77454;BME280;66538;53.150;18.160;2023-03-21T04:40:22;101237.27;;;7.40;84.62
77454;BME280;66538;53.150;18.160;2023-03-21T04:42:51;101239.74;;;7.40;84.57
77454;BME280;66538;53.150;18.160;2023-03-21T04:45:18;101240.36;;;7.38;84.60
77454;BME280;66538;53.150;18.160;2023-03-21T04:47:45;101245.08;;;7.39;84.95
77454;BME280;66538;53.150;18.160;2023-03-21T04:50:12;101243.98;;;7.38;84.73
77454;BME280;66538;53.150;18.160;2023-03-21T04:52:39;101243.06;;;7.36;84.84
77454;BME280;66538;53.150;18.160;2023-03-21T04:55:07;101245.50;;;7.37;85.11
77454;BME280;66538;53.150;18.160;2023-03-21T04:57:36;101244.05;;;7.37;85.01
77454;BME280;66538;53.150;18.160;2023-03-21T05:00:08;101235.89;;;7.35;84.96
77454;BME280;66538;53.150;18.160;2023-03-21T05:02:37;101237.84;;;7.35;84.62
77454;BME280;66538;53.150;18.160;2023-03-21T05:05:06;101243.59;;;7.34;84.87
77454;BME280;66538;53.150;18.160;2023-03-21T05:07:38;101245.83;;;7.35;84.84
77454;BME280;66538;53.150;18.160;2023-03-21T05:10:06;101255.27;;;7.34;84.78
77454;BME280;66538;53.150;18.160;2023-03-21T05:12:34;101254.52;;;7.34;85.02
77454;BME280;66538;53.150;18.160;2023-03-21T05:15:01;101258.16;;;7.35;84.86
77454;BME280;66538;53.150;18.160;2023-03-21T05:17:27;101260.98;;;7.38;84.92
77454;BME280;66538;53.150;18.160;2023-03-21T05:19:56;101259.50;;;7.39;84.41
77454;BME280;66538;53.150;18.160;2023-03-21T05:22:24;101262.91;;;7.42;84.69
77454;BME280;66538;53.150;18.160;2023-03-21T05:24:52;101263.47;;;7.45;84.55
77454;BME280;66538;53.150;18.160;2023-03-21T05:27:53;101264.08;;;7.48;84.64
77454;BME280;66538;53.150;18.160;2023-03-21T05:30:22;101263.27;;;7.50;84.84
77454;BME280;66538;53.150;18.160;2023-03-21T05:32:49;101265.38;;;7.52;84.49
77454;BME280;66538;53.150;18.160;2023-03-21T05:35:17;101266.54;;;7.54;84.79
77454;BME280;66538;53.150;18.160;2023-03-21T05:37:44;101265.41;;;7.57;84.73
77454;BME280;66538;53.150;18.160;2023-03-21T05:40:11;101273.02;;;7.60;84.47
77454;BME280;66538;53.150;18.160;2023-03-21T05:42:41;101279.84;;;7.64;84.47
77454;BME280;66538;53.150;18.160;2023-03-21T05:45:15;101284.61;;;7.66;84.36
77454;BME280;66538;53.150;18.160;2023-03-21T05:47:42;101289.56;;;7.68;84.63
77454;BME280;66538;53.150;18.160;2023-03-21T05:50:10;101293.42;;;7.71;84.67
77454;BME280;66538;53.150;18.160;2023-03-21T05:52:39;101295.00;;;7.74;84.48
77454;BME280;66538;53.150;18.160;2023-03-21T05:55:11;101297.22;;;7.77;84.70
77454;BME280;66538;53.150;18.160;2023-03-21T05:57:38;101296.73;;;7.81;84.66
77454;BME280;66538;53.150;18.160;2023-03-21T06:00:10;101294.89;;;7.86;84.35
77454;BME280;66538;53.150;18.160;2023-03-21T06:02:44;101300.95;;;7.91;84.21
77454;BME280;66538;53.150;18.160;2023-03-21T06:05:34;101296.31;;;7.96;84.26
77454;BME280;66538;53.150;18.160;2023-03-21T06:08:01;101297.46;;;8.01;83.74
77454;BME280;66538;53.150;18.160;2023-03-21T06:10:28;101297.96;;;8.05;83.71
77454;BME280;66538;53.150;18.160;2023-03-21T06:12:56;101301.55;;;8.08;83.57
77454;BME280;66538;53.150;18.160;2023-03-21T06:15:32;101307.71;;;8.11;83.56
77454;BME280;66538;53.150;18.160;2023-03-21T06:18:12;101308.14;;;8.13;83.73
77454;BME280;66538;53.150;18.160;2023-03-21T06:20:39;101305.94;;;8.14;83.45
77454;BME280;66538;53.150;18.160;2023-03-21T06:23:09;101308.54;;;8.14;83.71
77454;BME280;66538;53.150;18.160;2023-03-21T06:25:36;101317.06;;;8.15;83.63
77454;BME280;66538;53.150;18.160;2023-03-21T06:28:03;101317.54;;;8.12;83.27
77454;BME280;66538;53.150;18.160;2023-03-21T06:30:30;101319.73;;;8.14;83.14
77454;BME280;66538;53.150;18.160;2023-03-21T06:33:20;101320.95;;;8.18;83.47
77454;BME280;66538;53.150;18.160;2023-03-21T06:35:55;101321.09;;;8.23;83.52
77454;BME280;66538;53.150;18.160;2023-03-21T06:38:22;101318.60;;;8.27;83.39
77454;BME280;66538;53.150;18.160;2023-03-21T06:40:50;101324.09;;;8.34;82.97
77454;BME280;66538;53.150;18.160;2023-03-21T06:43:17;101324.69;;;8.39;82.87
77454;BME280;66538;53.150;18.160;2023-03-21T06:45:44;101325.14;;;8.42;82.43
77454;BME280;66538;53.150;18.160;2023-03-21T06:48:11;101331.45;;;8.44;82.31
77454;BME280;66538;53.150;18.160;2023-03-21T06:50:50;101328.21;;;8.45;82.35
77454;BME280;66538;53.150;18.160;2023-03-21T06:53:18;101328.70;;;8.45;82.24
77454;BME280;66538;53.150;18.160;2023-03-21T06:56:06;101331.55;;;8.47;81.99
77454;BME280;66538;53.150;18.160;2023-03-21T06:58:34;101336.52;;;8.51;81.97
77454;BME280;66538;53.150;18.160;2023-03-21T07:01:03;101339.58;;;8.53;81.82
77454;BME280;66538;53.150;18.160;2023-03-21T07:03:31;101340.43;;;8.55;81.45
77454;BME280;66538;53.150;18.160;2023-03-21T07:06:06;101344.29;;;8.55;81.03
77454;BME280;66538;53.150;18.160;2023-03-21T07:08:39;101346.31;;;8.56;81.09
77454;BME280;66538;53.150;18.160;2023-03-21T07:11:08;101350.91;;;8.61;80.85
77454;BME280;66538;53.150;18.160;2023-03-21T07:13:35;101349.80;;;8.64;80.62
77454;BME280;66538;53.150;18.160;2023-03-21T07:16:04;101352.20;;;8.69;80.26
77454;BME280;66538;53.150;18.160;2023-03-21T07:18:31;101353.19;;;8.75;80.17
77454;BME280;66538;53.150;18.160;2023-03-21T07:20:58;101353.89;;;8.81;79.77
77454;BME280;66538;53.150;18.160;2023-03-21T07:23:25;101356.21;;;8.89;79.94
77454;BME280;66538;53.150;18.160;2023-03-21T07:25:54;101353.08;;;8.98;79.68
77454;BME280;66538;53.150;18.160;2023-03-21T07:28:21;101349.67;;;9.07;79.63
77454;BME280;66538;53.150;18.160;2023-03-21T07:31:06;101349.89;;;9.26;79.21
77454;BME280;66538;53.150;18.160;2023-03-21T07:33:34;101344.48;;;9.46;78.70
77454;BME280;66538;53.150;18.160;2023-03-21T07:36:02;101338.98;;;9.63;78.59
77454;BME280;66538;53.150;18.160;2023-03-21T07:38:29;101340.64;;;9.80;78.20
77454;BME280;66538;53.150;18.160;2023-03-21T07:40:58;101344.02;;;9.91;76.96
77454;BME280;66538;53.150;18.160;2023-03-21T07:43:25;101342.66;;;9.91;77.01
77454;BME280;66538;53.150;18.160;2023-03-21T07:45:56;101348.41;;;9.88;76.64
77454;BME280;66538;53.150;18.160;2023-03-21T07:48:23;101352.55;;;9.92;76.57
77454;BME280;66538;53.150;18.160;2023-03-21T07:50:50;101352.38;;;9.98;76.30
77454;BME280;66538;53.150;18.160;2023-03-21T07:53:18;101353.45;;;10.07;76.22
77454;BME280;66538;53.150;18.160;2023-03-21T07:55:49;101352.92;;;10.23;75.63
77454;BME280;66538;53.150;18.160;2023-03-21T07:58:15;101351.77;;;10.43;75.08
77454;BME280;66538;53.150;18.160;2023-03-21T08:00:42;101352.28;;;10.61;75.08
77454;BME280;66538;53.150;18.160;2023-03-21T08:03:09;101355.23;;;10.69;74.69
77454;BME280;66538;53.150;18.160;2023-03-21T08:05:37;101357.84;;;10.73;74.78
77454;BME280;66538;53.150;18.160;2023-03-21T08:08:04;101357.48;;;10.74;74.83
77454;BME280;66538;53.150;18.160;2023-03-21T08:10:31;101361.39;;;10.74;74.57
77454;BME280;66538;53.150;18.160;2023-03-21T08:12:58;101363.05;;;10.76;74.24
77454;BME280;66538;53.150;18.160;2023-03-21T08:15:25;101363.97;;;10.76;74.31
77454;BME280;66538;53.150;18.160;2023-03-21T08:17:52;101365.93;;;10.78;74.12
77454;BME280;66538;53.150;18.160;2023-03-21T08:20:21;101363.02;;;10.75;74.13
77454;BME280;66538;53.150;18.160;2023-03-21T08:22:49;101367.88;;;10.76;74.48
77454;BME280;66538;53.150;18.160;2023-03-21T08:25:18;101375.47;;;10.79;73.81
77454;BME280;66538;53.150;18.160;2023-03-21T08:27:46;101374.44;;;10.80;73.66
77454;BME280;66538;53.150;18.160;2023-03-21T08:30:17;101376.02;;;10.85;73.51
77454;BME280;66538;53.150;18.160;2023-03-21T08:32:44;101381.15;;;10.93;73.68
77454;BME280;66538;53.150;18.160;2023-03-21T08:35:13;101382.23;;;11.02;73.10
77454;BME280;66538;53.150;18.160;2023-03-21T08:37:42;101385.39;;;11.10;72.35
77454;BME280;66538;53.150;18.160;2023-03-21T08:40:14;101387.02;;;11.11;71.78
77454;BME280;66538;53.150;18.160;2023-03-21T08:42:42;101385.31;;;11.19;72.27
77454;BME280;66538;53.150;18.160;2023-03-21T08:45:11;101389.52;;;11.38;71.35
77454;BME280;66538;53.150;18.160;2023-03-21T08:47:38;101388.06;;;11.45;71.01
77454;BME280;66538;53.150;18.160;2023-03-21T08:50:07;101387.63;;;11.51;70.81
77454;BME280;66538;53.150;18.160;2023-03-21T08:52:34;101390.64;;;11.53;70.41
77454;BME280;66538;53.150;18.160;2023-03-21T08:55:02;101394.98;;;11.53;69.29
77454;BME280;66538;53.150;18.160;2023-03-21T08:57:29;101395.98;;;11.54;68.36
77454;BME280;66538;53.150;18.160;2023-03-21T08:59:56;101399.58;;;11.50;66.98
77454;BME280;66538;53.150;18.160;2023-03-21T09:02:22;101403.62;;;11.40;66.49
77454;BME280;66538;53.150;18.160;2023-03-21T09:04:49;101403.77;;;11.34;66.79
77454;BME280;66538;53.150;18.160;2023-03-21T09:07:18;101404.67;;;11.32;67.61
77454;BME280;66538;53.150;18.160;2023-03-21T09:09:45;101409.77;;;11.35;67.29
77454;BME280;66538;53.150;18.160;2023-03-21T09:12:12;101408.91;;;11.37;67.02
77454;BME280;66538;53.150;18.160;2023-03-21T09:14:39;101413.23;;;11.38;64.74
77454;BME280;66538;53.150;18.160;2023-03-21T09:17:06;101406.36;;;11.36;64.74
77454;BME280;66538;53.150;18.160;2023-03-21T09:19:33;101409.23;;;11.48;63.91
77454;BME280;66538;53.150;18.160;2023-03-21T09:22:01;101406.66;;;11.66;65.01
77454;BME280;66538;53.150;18.160;2023-03-21T09:24:29;101406.33;;;11.79;63.93
77454;BME280;66538;53.150;18.160;2023-03-21T09:26:56;101406.16;;;11.92;63.75
77454;BME280;66538;53.150;18.160;2023-03-21T09:29:24;101409.37;;;11.98;63.26
77454;BME280;66538;53.150;18.160;2023-03-21T09:31:50;101412.42;;;11.98;63.18
77454;BME280;66538;53.150;18.160;2023-03-21T09:34:19;101409.98;;;11.94;62.23
77454;BME280;66538;53.150;18.160;2023-03-21T09:36:46;101411.47;;;11.88;62.55
77454;BME280;66538;53.150;18.160;2023-03-21T09:39:14;101416.20;;;11.82;61.74
77454;BME280;66538;53.150;18.160;2023-03-21T09:47:27;101412.52;;;11.33;61.18
77454;BME280;66538;53.150;18.160;2023-03-21T09:50:02;101417.39;;;11.21;62.53
77454;BME280;66538;53.150;18.160;2023-03-21T09:52:53;101417.91;;;11.18;61.77
77454;BME280;66538;53.150;18.160;2023-03-21T09:55:23;101412.87;;;11.31;61.94
77454;BME280;66538;53.150;18.160;2023-03-21T09:58:13;101406.96;;;11.54;61.52
77454;BME280;66538;53.150;18.160;2023-03-21T10:00:45;101400.55;;;11.78;60.54
77454;BME280;66538;53.150;18.160;2023-03-21T10:03:25;101404.47;;;12.06;60.02
77454;BME280;66538;53.150;18.160;2023-03-21T10:05:56;101403.96;;;12.35;59.46
77454;BME280;66538;53.150;18.160;2023-03-21T10:08:32;101404.62;;;12.59;58.47
77454;BME280;66538;53.150;18.160;2023-03-21T10:11:16;101406.10;;;12.71;57.27
77454;BME280;66538;53.150;18.160;2023-03-21T10:16:29;101412.58;;;12.81;56.94
77454;BME280;66538;53.150;18.160;2023-03-21T10:19:03;101411.25;;;12.90;57.41
77454;BME280;66538;53.150;18.160;2023-03-21T10:21:38;101411.66;;;13.07;57.77
77454;BME280;66538;53.150;18.160;2023-03-21T10:24:29;101410.95;;;13.25;57.43
77454;BME280;66538;53.150;18.160;2023-03-21T10:26:58;101412.52;;;13.46;55.68
77454;BME280;66538;53.150;18.160;2023-03-21T10:29:32;101411.71;;;13.52;55.33
77454;BME280;66538;53.150;18.160;2023-03-21T10:32:02;101419.33;;;13.44;55.38
77454;BME280;66538;53.150;18.160;2023-03-21T10:34:36;101426.19;;;13.37;55.55
77454;BME280;66538;53.150;18.160;2023-03-21T10:37:03;101423.48;;;13.20;54.85
77454;BME280;66538;53.150;18.160;2023-03-21T10:42:00;101424.33;;;13.11;56.43
77454;BME280;66538;53.150;18.160;2023-03-21T10:44:30;101422.64;;;13.13;55.94
77454;BME280;66538;53.150;18.160;2023-03-21T10:47:03;101421.34;;;13.15;55.27
77454;BME280;66538;53.150;18.160;2023-03-21T10:49:31;101421.40;;;13.14;55.54
77454;BME280;66538;53.150;18.160;2023-03-21T10:52:02;101418.89;;;13.15;55.48
77454;BME280;66538;53.150;18.160;2023-03-21T10:54:31;101424.06;;;13.15;53.10
77454;BME280;66538;53.150;18.160;2023-03-21T10:57:05;101417.10;;;13.03;55.01
77454;BME280;66538;53.150;18.160;2023-03-21T10:59:51;101418.96;;;12.97;55.10
77454;BME280;66538;53.150;18.160;2023-03-21T11:02:29;101414.70;;;12.85;54.64
77454;BME280;66538;53.150;18.160;2023-03-21T11:05:03;101408.95;;;12.89;55.25
77454;BME280;66538;53.150;18.160;2023-03-21T11:07:31;101407.91;;;12.96;54.79
77454;BME280;66538;53.150;18.160;2023-03-21T11:09:59;101410.02;;;13.08;55.40
77454;BME280;66538;53.150;18.160;2023-03-21T11:14:56;101404.09;;;13.08;52.99
77454;BME280;66538;53.150;18.160;2023-03-21T11:17:28;101405.96;;;12.99;52.80
77454;BME280;66538;53.150;18.160;2023-03-21T11:19:59;101403.52;;;13.00;53.17
77454;BME280;66538;53.150;18.160;2023-03-21T11:22:38;101399.56;;;13.07;53.64
77454;BME280;66538;53.150;18.160;2023-03-21T11:25:26;101399.21;;;13.22;53.50
77454;BME280;66538;53.150;18.160;2023-03-21T11:27:58;101394.77;;;13.41;53.00
77454;BME280;66538;53.150;18.160;2023-03-21T11:30:32;101393.87;;;13.54;53.00
77454;BME280;66538;53.150;18.160;2023-03-21T11:33:03;101392.66;;;13.59;52.09
77454;BME280;66538;53.150;18.160;2023-03-21T11:35:37;101396.83;;;13.61;52.81
77454;BME280;66538;53.150;18.160;2023-03-21T11:38:05;101391.85;;;13.64;52.21
77454;BME280;66538;53.150;18.160;2023-03-21T11:40:55;101390.06;;;13.64;51.91
77454;BME280;66538;53.150;18.160;2023-03-21T11:43:27;101396.16;;;13.70;52.60
77454;BME280;66538;53.150;18.160;2023-03-21T11:46:13;101397.26;;;13.82;51.95
77454;BME280;66538;53.150;18.160;2023-03-21T11:48:45;101395.93;;;14.00;51.07
77454;BME280;66538;53.150;18.160;2023-03-21T11:52:26;101390.13;;;14.21;50.98
77454;BME280;66538;53.150;18.160;2023-03-21T11:54:46;101387.66;;;14.35;50.37
77454;BME280;66538;53.150;18.160;2023-03-21T12:00:23;101383.52;;;14.22;50.79
77454;BME280;66538;53.150;18.160;2023-03-21T12:06:13;101386.41;;;14.17;50.85
77454;BME280;66538;53.150;18.160;2023-03-21T12:09:25;101383.73;;;14.19;51.04
77454;BME280;66538;53.150;18.160;2023-03-21T12:20:42;101371.66;;;14.48;50.71
77454;BME280;66538;53.150;18.160;2023-03-21T12:31:10;101361.83;;;14.84;51.29
77454;BME280;66538;53.150;18.160;2023-03-21T12:36:53;101360.30;;;14.74;50.50
77454;BME280;66538;53.150;18.160;2023-03-21T12:39:38;101355.21;;;14.62;50.74
77454;BME280;66538;53.150;18.160;2023-03-21T12:45:01;101348.16;;;14.48;50.86
77454;BME280;66538;53.150;18.160;2023-03-21T12:47:31;101346.10;;;14.44;50.89
77454;BME280;66538;53.150;18.160;2023-03-21T12:50:07;101345.14;;;14.39;50.95
77454;BME280;66538;53.150;18.160;2023-03-21T12:52:42;101345.76;;;14.34;50.68
77454;BME280;66538;53.150;18.160;2023-03-21T12:57:52;101344.05;;;14.39;50.93
77454;BME280;66538;53.150;18.160;2023-03-21T13:03:13;101341.70;;;14.38;50.48
77454;BME280;66538;53.150;18.160;2023-03-21T13:05:44;101343.48;;;14.32;50.73
77454;BME280;66538;53.150;18.160;2023-03-21T13:08:23;101348.50;;;14.21;50.88
77454;BME280;66538;53.150;18.160;2023-03-21T13:10:51;101348.23;;;14.15;51.45
77454;BME280;66538;53.150;18.160;2023-03-21T13:13:26;101345.84;;;14.10;51.52
77454;BME280;66538;53.150;18.160;2023-03-21T13:32:42;101329.54;;;14.48;51.10
77454;BME280;66538;53.150;18.160;2023-03-21T13:37:42;101326.17;;;14.85;50.59
77454;BME280;66538;53.150;18.160;2023-03-21T13:40:36;101322.90;;;15.11;49.75
77454;BME280;66538;53.150;18.160;2023-03-21T13:43:04;101321.09;;;15.20;49.62
77454;BME280;66538;53.150;18.160;2023-03-21T13:45:52;101322.05;;;15.33;48.96
77454;BME280;66538;53.150;18.160;2023-03-21T13:48:27;101322.42;;;15.63;48.39
77454;BME280;66538;53.150;18.160;2023-03-21T13:51:03;101314.67;;;16.21;47.58
77454;BME280;66538;53.150;18.160;2023-03-21T13:53:38;101312.63;;;17.61;45.55
77454;BME280;66538;53.150;18.160;2023-03-21T14:04:17;101292.72;;;22.04;37.11
77454;BME280;66538;53.150;18.160;2023-03-21T14:07:28;101299.76;;;21.10;38.22
77454;BME280;66538;53.150;18.160;2023-03-21T14:09:59;101296.33;;;22.08;36.84
77454;BME280;66538;53.150;18.160;2023-03-21T14:12:30;101292.86;;;23.99;34.44
77454;BME280;66538;53.150;18.160;2023-03-21T14:15:12;101289.12;;;25.45;31.78
77454;BME280;66538;53.150;18.160;2023-03-21T14:17:54;101276.73;;;26.61;30.89
77454;BME280;66538;53.150;18.160;2023-03-21T14:20:28;101272.17;;;26.91;30.00
77454;BME280;66538;53.150;18.160;2023-03-21T14:22:56;101275.16;;;26.30;30.37
77454;BME280;66538;53.150;18.160;2023-03-21T14:25:25;101264.91;;;27.39;28.75
77454;BME280;66538;53.150;18.160;2023-03-21T14:28:00;101264.77;;;28.29;27.41
77454;BME280;66538;53.150;18.160;2023-03-21T14:30:33;101261.70;;;29.18;27.00
77454;BME280;66538;53.150;18.160;2023-03-21T14:33:07;101256.90;;;30.11;25.24
77454;BME280;66538;53.150;18.160;2023-03-21T14:35:39;101246.98;;;30.66;24.77
77454;BME280;66538;53.150;18.160;2023-03-21T14:38:17;101247.70;;;29.51;25.12
77454;BME280;66538;53.150;18.160;2023-03-21T14:40:50;101249.33;;;27.15;26.71
77454;BME280;66538;53.150;18.160;2023-03-21T14:43:19;101253.92;;;26.05;27.38
77454;BME280;66538;53.150;18.160;2023-03-21T14:45:48;101256.71;;;27.16;26.71
77454;BME280;66538;53.150;18.160;2023-03-21T14:48:16;101255.17;;;27.23;26.14
77454;BME280;66538;53.150;18.160;2023-03-21T14:53:19;101252.10;;;26.85;26.21
77454;BME280;66538;53.150;18.160;2023-03-21T14:55:53;101251.03;;;25.49;27.39
77454;BME280;66538;53.150;18.160;2023-03-21T14:58:22;101250.98;;;24.79;28.17